This is the latest recevied weather packets stored in our database for station/object LRCT. If no packets are shown the sender has not sent any weather packets the latest 10 day(s).
| Time | Temp. | Humidity | Pressure | Rain* | Wind** | Luminosity | Snow |
|---|---|---|---|---|---|---|---|
| 1777786437 | 3.89° C | 75% | 1023 hPa | - | - | - | - |
| 1777785533 | 3.89° C | 75% | 1023 hPa | - | - | - | - |
| 1777783733 | 1.11° C | 87% | 1023 hPa | - | - | - | - |
| 1777782838 | 1.11° C | 87% | 1023 hPa | - | - | - | - |
| 1777781937 | 1.11° C | 87% | 1023 hPa | - | - | - | - |
| 1777781060 | 1.11° C | 87% | 1023 hPa | - | - | - | - |
| 1777780132 | 0° C | 93% | 1022 hPa | - | - | - | - |
| 1777779236 | 0° C | 93% | 1022 hPa | - | - | - | - |
| 1777778331 | 0° C | 93% | 1022 hPa | - | - | - | - |
| 1777777436 | 0° C | 93% | 1022 hPa | - | - | - | - |
| 1777776548 | 5° C | 81% | 1023 hPa | - | - | - | - |
| 1777754933 | 10° C | 58% | 1022 hPa | - | - | - | - |
| 1777751336 | 10° C | 58% | 1022 hPa | - | - | - | - |
| 1777750437 | 10° C | 58% | 1022 hPa | - | - | - | - |
| 1777749536 | 10° C | 58% | 1022 hPa | - | - | - | - |
| 1777748636 | 10° C | 58% | 1022 hPa | - | - | - | - |
| 1777745937 | 12.78° C | 38% | 1020 hPa | - | - | - | - |
| 1777742334 | 12.78° C | 41% | 1020 hPa | - | - | - | - |
| 1777740534 | 16.11° C | 29% | 1020 hPa | - | - | - | - |
| 1777737837 | 16.11° C | 29% | 1020 hPa | - | - | - | - |
| 1777736942 | 16.11° C | 29% | 1021 hPa | - | - | - | - |
| 1777736037 | 16.11° C | 29% | 1021 hPa | - | - | - | - |
| 1777735136 | 16.11° C | 29% | 1021 hPa | - | - | - | - |
| 1777734236 | 16.11° C | 29% | 1021 hPa | - | - | - | - |
| 1777733336 | 15° C | 31% | 1021 hPa | - | - | - | - |
* Rain since midnight (hover to see other rain measurements)
** Current wind speed in m/s (hover to see current wind gust speed)